Startpagina
METAR-TAF:

METAR-TAF

Vliegvelden :

Seattle-Tacoma International Airport

Seattle / Tacoma, Washington, Verenigde Staten

breedte: 47-26-41N, lengte: 122-18-49W, hoogte: 130 m

Actueel weer

Dit bericht is 17 minuten geleden gemaakt, om 14:53 UTC
Wind 3 kt uit het noordnoordwesten
Temperatuur 17°C
Vochtigheid 77%
Druk 1020 hPa
Zicht: 12.9 km
Onbewolkt

METAR: KSEA 191453Z 34003KT 8SM CLR 17/13 A3011 RMK AO2 SLP202 T01720128 53004

Tijdstip: 08:10 (15:10 UTC)

Verwachting

Dit bericht is 6 minuten geleden gemaakt, om 15:04 UTC
Verwachting geldig van 19 om 15 UTC tot 20 om 18 UTC
Wind 4 kt uit het noordnoordwesten
Zicht: 10 km
Onbewolkt
Van 19 om 1800 UTC
Wind 10 kt uit het noordnoordwesten
Zicht: 9.7 km
Weinig wolken op 12000 ft
rook
Van 20 om 0600 UTC
Wind 6 kt uit het noordnoordoosten
Zicht: 6.4 km
Verspreide wolken op 4000 ft
rook

TAF: KSEA 191504Z 1915/2018 34004KT P6SM SKC FM191800 34010KT 6SM FU FEW120 FM200600 02006KT 4SM FU SCT040

Waarnemingen en weersverwachtingen van meer dan 4000 vliegvelden (METAR en TAF).

De beschikbare stations zijn de gele en rode punten op de kaart.

Ga met uw muis naar het station om de naam te zien.

Klik dan om waarnemingen en weersverwachtingen te zien.

kaart wijzigen: klik op de groene knoppen met een zwart kruis om in te zoomen, op de groene knop met een streepje om uit te zoomen of op de groene pijlen voor aangrenzende kaarten.


METAR-TAF: